Íslenskir flugvellir

Veldu flugvelli í þeirri röð sem þeir eiga að birtast og styddu á hnappinn

Uppfært síðast 03.07.2022 - kl. 09:48

SIGMET síðustu 6 klst.

BIRD SIGMET U01 VALID 031035/031300 BIRK- BIRD REYKJAVIK CTA SEV TURB FCST WI N6530 W01300 - N6430 W01330 - N6330 W01700 - N6430 W01630 - N6530 W01300 SFC/FL080 STNR INTSF
BIRD SIGMET U03 VALID 030939/031300 BIRK- BIRD REYKJAVIK CTA CNL SIGMET U01 031035/031300
BIRD SIGMET U02 VALID 031000/031300 BIRK- BIRD REYKJAVIK CTA SEV TURB FCST WI N6530 W01300 - N6430 W01330 - N6330 W01700 - N6430 W01630 - N6530 W01300 SFC/FL080 STNR INTSF

Vestmannaeyjar

METAR síðustu 3 klst

TímiSkeyti
2022-07-03 09.00METAR BIVM 030900Z 34014G25KT 280V030 9999 BKN025 11/07 Q1004

TAF

TAFBIVM2022-07-03 09.11Z03101834015G25KT 9999 BKN025 TEMPO 0311/0318 34025G40KT

Allur vindur er réttvísandi bæði í Metar og frá sjálfvirkum veðurstöðvum




Aðrir tengdir vefir



Þetta vefsvæði byggir á Eplica